sensor_id;sensor_type;location;lat;lon;timestamp;P1;durP1;ratioP1;P2;durP2;ratioP2
32613;SDS011;19031;51.400;6.770;2023-11-21T00:02:22;17.63;;;7.45;;
32613;SDS011;19031;51.400;6.770;2023-11-21T00:04:48;20.23;;;7.53;;
32613;SDS011;19031;51.400;6.770;2023-11-21T00:07:14;21.40;;;8.70;;
32613;SDS011;19031;51.400;6.770;2023-11-21T00:09:40;13.52;;;5.90;;
32613;SDS011;19031;51.400;6.770;2023-11-21T00:12:06;12.88;;;6.32;;
32613;SDS011;19031;51.400;6.770;2023-11-21T00:14:36;18.45;;;7.25;;
32613;SDS011;19031;51.400;6.770;2023-11-21T00:17:03;19.77;;;7.07;;
32613;SDS011;19031;51.400;6.770;2023-11-21T00:19:30;19.08;;;7.57;;
32613;SDS011;19031;51.400;6.770;2023-11-21T00:21:56;19.52;;;8.88;;
32613;SDS011;19031;51.400;6.770;2023-11-21T00:24:23;17.77;;;9.18;;
32613;SDS011;19031;51.400;6.770;2023-11-21T00:26:49;16.42;;;8.20;;
32613;SDS011;19031;51.400;6.770;2023-11-21T00:29:16;13.73;;;6.72;;
32613;SDS011;19031;51.400;6.770;2023-11-21T00:31:42;15.55;;;7.50;;
32613;SDS011;19031;51.400;6.770;2023-11-21T00:34:09;16.85;;;7.82;;
32613;SDS011;19031;51.400;6.770;2023-11-21T00:36:34;20.00;;;9.38;;
32613;SDS011;19031;51.400;6.770;2023-11-21T00:39:00;17.38;;;9.48;;
32613;SDS011;19031;51.400;6.770;2023-11-21T00:41:28;9.98;;;5.35;;
32613;SDS011;19031;51.400;6.770;2023-11-21T00:43:54;13.93;;;7.10;;
32613;SDS011;19031;51.400;6.770;2023-11-21T00:46:20;15.75;;;7.68;;
32613;SDS011;19031;51.400;6.770;2023-11-21T00:48:46;18.15;;;7.63;;
32613;SDS011;19031;51.400;6.770;2023-11-21T00:51:11;16.52;;;8.70;;
32613;SDS011;19031;51.400;6.770;2023-11-21T00:53:37;9.65;;;5.75;;
32613;SDS011;19031;51.400;6.770;2023-11-21T00:56:02;21.90;;;8.40;;
32613;SDS011;19031;51.400;6.770;2023-11-21T00:58:28;20.08;;;7.97;;
32613;SDS011;19031;51.400;6.770;2023-11-21T01:00:55;11.30;;;5.68;;
32613;SDS011;19031;51.400;6.770;2023-11-21T01:03:21;13.38;;;5.95;;
32613;SDS011;19031;51.400;6.770;2023-11-21T01:05:46;18.08;;;7.07;;
32613;SDS011;19031;51.400;6.770;2023-11-21T01:08:14;15.48;;;7.35;;
32613;SDS011;19031;51.400;6.770;2023-11-21T01:10:40;17.17;;;6.07;;
32613;SDS011;19031;51.400;6.770;2023-11-21T01:13:06;11.88;;;6.25;;
32613;SDS011;19031;51.400;6.770;2023-11-21T01:15:32;14.02;;;6.10;;
32613;SDS011;19031;51.400;6.770;2023-11-21T01:17:58;13.45;;;5.55;;
32613;SDS011;19031;51.400;6.770;2023-11-21T01:20:24;15.10;;;6.57;;
32613;SDS011;19031;51.400;6.770;2023-11-21T01:22:50;15.77;;;7.20;;
32613;SDS011;19031;51.400;6.770;2023-11-21T01:25:15;17.30;;;6.97;;
32613;SDS011;19031;51.400;6.770;2023-11-21T01:27:41;16.58;;;6.93;;
32613;SDS011;19031;51.400;6.770;2023-11-21T01:30:07;12.10;;;6.30;;
32613;SDS011;19031;51.400;6.770;2023-11-21T01:32:35;9.20;;;5.60;;
32613;SDS011;19031;51.400;6.770;2023-11-21T01:35:01;15.80;;;6.30;;
32613;SDS011;19031;51.400;6.770;2023-11-21T01:37:27;25.15;;;7.15;;
32613;SDS011;19031;51.400;6.770;2023-11-21T01:39:53;17.13;;;7.45;;
32613;SDS011;19031;51.400;6.770;2023-11-21T01:42:22;27.55;;;7.57;;
32613;SDS011;19031;51.400;6.770;2023-11-21T01:44:48;11.10;;;6.32;;
32613;SDS011;19031;51.400;6.770;2023-11-21T01:47:14;15.82;;;7.10;;
32613;SDS011;19031;51.400;6.770;2023-11-21T01:49:40;13.98;;;5.85;;
32613;SDS011;19031;51.400;6.770;2023-11-21T01:52:10;13.82;;;7.38;;
32613;SDS011;19031;51.400;6.770;2023-11-21T01:54:36;14.18;;;7.07;;
32613;SDS011;19031;51.400;6.770;2023-11-21T01:57:02;15.02;;;5.88;;
32613;SDS011;19031;51.400;6.770;2023-11-21T01:59:35;22.35;;;6.40;;
32613;SDS011;19031;51.400;6.770;2023-11-21T02:02:02;17.10;;;7.68;;
32613;SDS011;19031;51.400;6.770;2023-11-21T02:04:30;22.33;;;8.15;;
32613;SDS011;19031;51.400;6.770;2023-11-21T02:06:56;10.85;;;6.53;;
32613;SDS011;19031;51.400;6.770;2023-11-21T02:09:28;13.65;;;6.90;;
32613;SDS011;19031;51.400;6.770;2023-11-21T02:11:56;20.90;;;7.27;;
32613;SDS011;19031;51.400;6.770;2023-11-21T02:14:23;12.45;;;6.80;;
32613;SDS011;19031;51.400;6.770;2023-11-21T02:16:51;13.65;;;6.60;;
32613;SDS011;19031;51.400;6.770;2023-11-21T02:19:19;12.45;;;5.63;;
32613;SDS011;19031;51.400;6.770;2023-11-21T02:21:47;14.82;;;7.55;;
32613;SDS011;19031;51.400;6.770;2023-11-21T02:24:15;14.75;;;7.05;;
32613;SDS011;19031;51.400;6.770;2023-11-21T02:26:42;25.35;;;8.77;;
32613;SDS011;19031;51.400;6.770;2023-11-21T02:29:08;17.63;;;7.75;;
32613;SDS011;19031;51.400;6.770;2023-11-21T02:31:37;16.50;;;7.18;;
32613;SDS011;19031;51.400;6.770;2023-11-21T02:34:10;14.60;;;6.90;;
32613;SDS011;19031;51.400;6.770;2023-11-21T02:36:38;11.90;;;6.47;;
32613;SDS011;19031;51.400;6.770;2023-11-21T02:39:04;13.20;;;5.85;;
32613;SDS011;19031;51.400;6.770;2023-11-21T02:41:29;15.60;;;7.70;;
32613;SDS011;19031;51.400;6.770;2023-11-21T02:43:55;20.42;;;7.95;;
32613;SDS011;19031;51.400;6.770;2023-11-21T02:46:21;10.88;;;6.20;;
32613;SDS011;19031;51.400;6.770;2023-11-21T02:48:47;17.70;;;8.27;;
32613;SDS011;19031;51.400;6.770;2023-11-21T02:51:12;14.10;;;6.68;;
32613;SDS011;19031;51.400;6.770;2023-11-21T02:53:38;14.95;;;6.78;;
32613;SDS011;19031;51.400;6.770;2023-11-21T02:56:04;14.98;;;8.68;;
32613;SDS011;19031;51.400;6.770;2023-11-21T02:58:30;15.00;;;7.63;;
32613;SDS011;19031;51.400;6.770;2023-11-21T03:00:55;22.90;;;8.75;;
32613;SDS011;19031;51.400;6.770;2023-11-21T03:03:21;18.10;;;8.20;;
32613;SDS011;19031;51.400;6.770;2023-11-21T03:05:48;18.25;;;8.30;;
32613;SDS011;19031;51.400;6.770;2023-11-21T03:08:14;18.27;;;8.48;;
32613;SDS011;19031;51.400;6.770;2023-11-21T03:10:40;13.93;;;6.95;;
32613;SDS011;19031;51.400;6.770;2023-11-21T03:13:05;19.45;;;9.02;;
32613;SDS011;19031;51.400;6.770;2023-11-21T03:15:31;15.88;;;8.23;;
32613;SDS011;19031;51.400;6.770;2023-11-21T03:17:57;17.50;;;8.10;;
32613;SDS011;19031;51.400;6.770;2023-11-21T03:20:23;24.88;;;9.57;;
32613;SDS011;19031;51.400;6.770;2023-11-21T03:22:49;20.80;;;9.88;;
32613;SDS011;19031;51.400;6.770;2023-11-21T03:25:15;13.77;;;7.30;;
32613;SDS011;19031;51.400;6.770;2023-11-21T03:27:42;23.98;;;9.07;;
32613;SDS011;19031;51.400;6.770;2023-11-21T03:30:09;12.68;;;7.70;;
32613;SDS011;19031;51.400;6.770;2023-11-21T03:32:36;18.27;;;8.82;;
32613;SDS011;19031;51.400;6.770;2023-11-21T03:35:01;15.85;;;7.38;;
32613;SDS011;19031;51.400;6.770;2023-11-21T03:37:28;16.45;;;8.23;;
32613;SDS011;19031;51.400;6.770;2023-11-21T03:39:54;16.10;;;7.68;;
32613;SDS011;19031;51.400;6.770;2023-11-21T03:42:21;21.92;;;9.55;;
32613;SDS011;19031;51.400;6.770;2023-11-21T03:44:47;19.92;;;8.75;;
32613;SDS011;19031;51.400;6.770;2023-11-21T03:47:12;17.45;;;8.52;;
32613;SDS011;19031;51.400;6.770;2023-11-21T03:49:38;13.80;;;7.32;;
32613;SDS011;19031;51.400;6.770;2023-11-21T03:52:04;17.92;;;8.90;;
32613;SDS011;19031;51.400;6.770;2023-11-21T03:54:30;12.88;;;7.70;;
32613;SDS011;19031;51.400;6.770;2023-11-21T03:56:56;15.18;;;7.88;;
32613;SDS011;19031;51.400;6.770;2023-11-21T03:59:21;19.63;;;8.43;;
32613;SDS011;19031;51.400;6.770;2023-11-21T04:01:49;20.20;;;10.63;;
32613;SDS011;19031;51.400;6.770;2023-11-21T04:04:15;16.45;;;7.72;;
32613;SDS011;19031;51.400;6.770;2023-11-21T04:06:41;11.27;;;6.03;;
32613;SDS011;19031;51.400;6.770;2023-11-21T04:09:06;14.52;;;6.97;;
32613;SDS011;19031;51.400;6.770;2023-11-21T04:11:32;13.40;;;6.50;;
32613;SDS011;19031;51.400;6.770;2023-11-21T04:13:58;16.23;;;8.23;;
32613;SDS011;19031;51.400;6.770;2023-11-21T04:16:24;14.52;;;8.35;;
32613;SDS011;19031;51.400;6.770;2023-11-21T04:18:49;12.38;;;7.28;;
32613;SDS011;19031;51.400;6.770;2023-11-21T04:21:15;13.15;;;7.15;;
32613;SDS011;19031;51.400;6.770;2023-11-21T04:23:41;21.52;;;9.80;;
32613;SDS011;19031;51.400;6.770;2023-11-21T04:26:07;11.68;;;6.43;;
32613;SDS011;19031;51.400;6.770;2023-11-21T04:28:33;21.15;;;9.73;;
32613;SDS011;19031;51.400;6.770;2023-11-21T04:30:59;17.95;;;7.80;;
32613;SDS011;19031;51.400;6.770;2023-11-21T04:33:25;10.43;;;6.38;;
32613;SDS011;19031;51.400;6.770;2023-11-21T04:35:50;13.73;;;6.63;;
32613;SDS011;19031;51.400;6.770;2023-11-21T04:38:16;22.80;;;10.73;;
32613;SDS011;19031;51.400;6.770;2023-11-21T04:40:42;25.67;;;10.88;;
32613;SDS011;19031;51.400;6.770;2023-11-21T04:43:08;14.20;;;7.80;;
32613;SDS011;19031;51.400;6.770;2023-11-21T04:45:34;19.85;;;9.15;;
32613;SDS011;19031;51.400;6.770;2023-11-21T04:47:59;18.63;;;7.57;;
32613;SDS011;19031;51.400;6.770;2023-11-21T04:50:25;13.73;;;6.97;;
32613;SDS011;19031;51.400;6.770;2023-11-21T04:52:52;20.65;;;10.02;;
32613;SDS011;19031;51.400;6.770;2023-11-21T04:55:18;20.75;;;9.27;;
32613;SDS011;19031;51.400;6.770;2023-11-21T04:57:44;20.02;;;10.50;;
32613;SDS011;19031;51.400;6.770;2023-11-21T05:00:10;18.88;;;9.13;;
32613;SDS011;19031;51.400;6.770;2023-11-21T05:02:37;21.48;;;9.68;;
32613;SDS011;19031;51.400;6.770;2023-11-21T05:05:03;20.30;;;9.95;;
32613;SDS011;19031;51.400;6.770;2023-11-21T05:07:30;27.70;;;10.10;;
32613;SDS011;19031;51.400;6.770;2023-11-21T05:09:57;20.73;;;10.65;;
32613;SDS011;19031;51.400;6.770;2023-11-21T05:12:23;24.35;;;12.38;;
32613;SDS011;19031;51.400;6.770;2023-11-21T05:14:50;21.38;;;10.50;;
32613;SDS011;19031;51.400;6.770;2023-11-21T05:17:15;22.85;;;11.73;;
32613;SDS011;19031;51.400;6.770;2023-11-21T05:19:41;26.13;;;11.75;;
32613;SDS011;19031;51.400;6.770;2023-11-21T05:22:08;23.70;;;11.60;;
32613;SDS011;19031;51.400;6.770;2023-11-21T05:24:33;11.88;;;6.00;;
32613;SDS011;19031;51.400;6.770;2023-11-21T05:27:00;14.02;;;8.23;;
32613;SDS011;19031;51.400;6.770;2023-11-21T05:29:25;12.32;;;6.72;;
32613;SDS011;19031;51.400;6.770;2023-11-21T05:31:51;23.88;;;10.40;;
32613;SDS011;19031;51.400;6.770;2023-11-21T05:34:18;15.32;;;7.45;;
32613;SDS011;19031;51.400;6.770;2023-11-21T05:36:43;12.00;;;6.63;;
32613;SDS011;19031;51.400;6.770;2023-11-21T05:39:10;31.27;;;10.43;;
32613;SDS011;19031;51.400;6.770;2023-11-21T05:41:36;14.68;;;8.68;;
32613;SDS011;19031;51.400;6.770;2023-11-21T05:44:02;14.95;;;9.05;;
32613;SDS011;19031;51.400;6.770;2023-11-21T05:46:28;18.48;;;8.52;;
32613;SDS011;19031;51.400;6.770;2023-11-21T05:48:53;24.15;;;11.70;;
32613;SDS011;19031;51.400;6.770;2023-11-21T05:51:19;22.55;;;12.13;;
32613;SDS011;19031;51.400;6.770;2023-11-21T05:53:45;22.33;;;10.85;;
32613;SDS011;19031;51.400;6.770;2023-11-21T05:56:11;28.33;;;11.40;;
32613;SDS011;19031;51.400;6.770;2023-11-21T05:58:38;31.08;;;14.55;;
32613;SDS011;19031;51.400;6.770;2023-11-21T06:01:05;34.05;;;14.95;;
32613;SDS011;19031;51.400;6.770;2023-11-21T06:03:34;30.40;;;14.15;;
32613;SDS011;19031;51.400;6.770;2023-11-21T06:06:00;32.95;;;15.48;;
32613;SDS011;19031;51.400;6.770;2023-11-21T06:08:25;30.70;;;14.50;;
32613;SDS011;19031;51.400;6.770;2023-11-21T06:10:51;34.80;;;16.38;;
32613;SDS011;19031;51.400;6.770;2023-11-21T06:13:17;40.10;;;16.73;;
32613;SDS011;19031;51.400;6.770;2023-11-21T06:15:49;42.95;;;19.15;;
32613;SDS011;19031;51.400;6.770;2023-11-21T06:18:15;50.92;;;21.42;;
32613;SDS011;19031;51.400;6.770;2023-11-21T06:20:41;53.33;;;23.30;;
32613;SDS011;19031;51.400;6.770;2023-11-21T06:23:06;61.17;;;23.50;;
32613;SDS011;19031;51.400;6.770;2023-11-21T06:25:32;68.47;;;24.17;;
32613;SDS011;19031;51.400;6.770;2023-11-21T06:28:01;71.13;;;26.38;;
32613;SDS011;19031;51.400;6.770;2023-11-21T06:30:26;62.25;;;23.98;;
32613;SDS011;19031;51.400;6.770;2023-11-21T06:32:53;70.60;;;24.40;;
32613;SDS011;19031;51.400;6.770;2023-11-21T06:35:19;75.25;;;25.70;;
32613;SDS011;19031;51.400;6.770;2023-11-21T06:37:45;58.55;;;23.60;;
32613;SDS011;19031;51.400;6.770;2023-11-21T06:40:13;67.43;;;23.42;;
32613;SDS011;19031;51.400;6.770;2023-11-21T06:42:43;76.95;;;24.67;;
32613;SDS011;19031;51.400;6.770;2023-11-21T06:45:09;81.10;;;27.55;;
32613;SDS011;19031;51.400;6.770;2023-11-21T06:47:36;67.30;;;25.65;;
32613;SDS011;19031;51.400;6.770;2023-11-21T06:50:03;78.95;;;24.98;;
32613;SDS011;19031;51.400;6.770;2023-11-21T06:52:29;95.38;;;27.92;;
32613;SDS011;19031;51.400;6.770;2023-11-21T06:54:54;75.53;;;25.50;;
32613;SDS011;19031;51.400;6.770;2023-11-21T06:57:22;86.30;;;29.63;;
32613;SDS011;19031;51.400;6.770;2023-11-21T06:59:48;85.47;;;25.20;;
32613;SDS011;19031;51.400;6.770;2023-11-21T07:02:15;79.22;;;22.30;;
32613;SDS011;19031;51.400;6.770;2023-11-21T07:04:43;56.55;;;20.80;;
32613;SDS011;19031;51.400;6.770;2023-11-21T07:07:11;102.13;;;26.75;;
32613;SDS011;19031;51.400;6.770;2023-11-21T07:09:37;65.90;;;24.40;;
32613;SDS011;19031;51.400;6.770;2023-11-21T07:12:04;60.30;;;23.90;;
32613;SDS011;19031;51.400;6.770;2023-11-21T07:14:32;68.55;;;24.42;;
32613;SDS011;19031;51.400;6.770;2023-11-21T07:16:58;66.60;;;23.75;;
32613;SDS011;19031;51.400;6.770;2023-11-21T07:19:24;70.20;;;24.55;;
32613;SDS011;19031;51.400;6.770;2023-11-21T07:21:50;71.97;;;24.70;;
32613;SDS011;19031;51.400;6.770;2023-11-21T07:24:16;56.40;;;21.35;;
32613;SDS011;19031;51.400;6.770;2023-11-21T07:26:41;64.53;;;24.48;;
32613;SDS011;19031;51.400;6.770;2023-11-21T07:29:08;69.55;;;25.38;;
32613;SDS011;19031;51.400;6.770;2023-11-21T07:31:33;76.60;;;26.33;;
32613;SDS011;19031;51.400;6.770;2023-11-21T07:33:59;74.82;;;25.70;;
32613;SDS011;19031;51.400;6.770;2023-11-21T07:36:25;65.75;;;23.63;;
32613;SDS011;19031;51.400;6.770;2023-11-21T07:38:51;73.60;;;27.17;;
32613;SDS011;19031;51.400;6.770;2023-11-21T07:41:17;77.38;;;27.88;;
32613;SDS011;19031;51.400;6.770;2023-11-21T07:43:44;54.25;;;20.05;;
32613;SDS011;19031;51.400;6.770;2023-11-21T07:46:10;63.42;;;23.30;;
32613;SDS011;19031;51.400;6.770;2023-11-21T07:48:39;71.05;;;26.73;;
32613;SDS011;19031;51.400;6.770;2023-11-21T07:51:07;66.80;;;23.23;;
32613;SDS011;19031;51.400;6.770;2023-11-21T07:53:36;62.85;;;22.95;;
32613;SDS011;19031;51.400;6.770;2023-11-21T07:56:02;57.50;;;21.73;;
32613;SDS011;19031;51.400;6.770;2023-11-21T07:58:29;57.30;;;22.13;;
32613;SDS011;19031;51.400;6.770;2023-11-21T08:00:54;52.92;;;22.83;;
32613;SDS011;19031;51.400;6.770;2023-11-21T08:03:20;62.30;;;26.40;;
32613;SDS011;19031;51.400;6.770;2023-11-21T08:05:46;57.88;;;23.08;;
32613;SDS011;19031;51.400;6.770;2023-11-21T08:08:12;61.83;;;25.13;;
32613;SDS011;19031;51.400;6.770;2023-11-21T08:10:37;56.83;;;24.02;;
32613;SDS011;19031;51.400;6.770;2023-11-21T08:13:04;51.88;;;21.38;;
32613;SDS011;19031;51.400;6.770;2023-11-21T08:15:30;66.65;;;24.65;;
32613;SDS011;19031;51.400;6.770;2023-11-21T08:17:59;66.65;;;24.30;;
32613;SDS011;19031;51.400;6.770;2023-11-21T08:20:24;57.60;;;24.80;;
32613;SDS011;19031;51.400;6.770;2023-11-21T08:22:50;54.33;;;22.05;;
32613;SDS011;19031;51.400;6.770;2023-11-21T08:25:17;56.00;;;23.92;;
32613;SDS011;19031;51.400;6.770;2023-11-21T08:27:45;62.47;;;26.05;;
32613;SDS011;19031;51.400;6.770;2023-11-21T08:30:11;49.53;;;19.83;;
32613;SDS011;19031;51.400;6.770;2023-11-21T08:32:37;61.05;;;24.98;;
32613;SDS011;19031;51.400;6.770;2023-11-21T08:35:03;59.85;;;22.88;;
32613;SDS011;19031;51.400;6.770;2023-11-21T08:37:30;60.47;;;24.88;;
32613;SDS011;19031;51.400;6.770;2023-11-21T08:39:58;63.45;;;25.50;;
32613;SDS011;19031;51.400;6.770;2023-11-21T08:42:27;64.00;;;25.20;;
32613;SDS011;19031;51.400;6.770;2023-11-21T08:44:54;63.90;;;26.75;;
32613;SDS011;19031;51.400;6.770;2023-11-21T08:47:22;59.90;;;23.77;;
32613;SDS011;19031;51.400;6.770;2023-11-21T08:49:49;60.22;;;27.05;;
32613;SDS011;19031;51.400;6.770;2023-11-21T08:52:18;54.05;;;24.45;;
32613;SDS011;19031;51.400;6.770;2023-11-21T08:54:45;53.63;;;23.58;;
32613;SDS011;19031;51.400;6.770;2023-11-21T08:57:11;66.47;;;26.20;;
32613;SDS011;19031;51.400;6.770;2023-11-21T08:59:37;53.50;;;22.67;;
32613;SDS011;19031;51.400;6.770;2023-11-21T09:02:02;49.30;;;21.40;;
32613;SDS011;19031;51.400;6.770;2023-11-21T09:04:28;65.85;;;25.67;;
32613;SDS011;19031;51.400;6.770;2023-11-21T09:06:53;57.30;;;23.20;;
32613;SDS011;19031;51.400;6.770;2023-11-21T09:09:19;47.10;;;21.60;;
32613;SDS011;19031;51.400;6.770;2023-11-21T09:11:45;52.05;;;23.08;;
32613;SDS011;19031;51.400;6.770;2023-11-21T09:14:11;71.25;;;26.70;;
32613;SDS011;19031;51.400;6.770;2023-11-21T09:16:39;60.97;;;24.73;;
32613;SDS011;19031;51.400;6.770;2023-11-21T09:19:06;62.80;;;26.08;;
32613;SDS011;19031;51.400;6.770;2023-11-21T09:21:32;56.72;;;23.13;;
32613;SDS011;19031;51.400;6.770;2023-11-21T09:23:59;55.58;;;24.83;;
32613;SDS011;19031;51.400;6.770;2023-11-21T09:26:25;51.45;;;22.98;;
32613;SDS011;19031;51.400;6.770;2023-11-21T09:28:51;64.85;;;25.70;;
32613;SDS011;19031;51.400;6.770;2023-11-21T09:31:17;58.95;;;24.08;;
32613;SDS011;19031;51.400;6.770;2023-11-21T09:33:47;53.97;;;23.05;;
32613;SDS011;19031;51.400;6.770;2023-11-21T09:36:13;66.80;;;26.00;;
32613;SDS011;19031;51.400;6.770;2023-11-21T09:38:42;52.38;;;22.35;;
32613;SDS011;19031;51.400;6.770;2023-11-21T09:41:21;67.25;;;26.50;;
32613;SDS011;19031;51.400;6.770;2023-11-21T09:43:50;59.10;;;22.25;;
32613;SDS011;19031;51.400;6.770;2023-11-21T09:46:21;58.45;;;23.02;;
32613;SDS011;19031;51.400;6.770;2023-11-21T09:48:50;52.38;;;23.63;;
32613;SDS011;19031;51.400;6.770;2023-11-21T09:51:19;58.70;;;23.10;;
32613;SDS011;19031;51.400;6.770;2023-11-21T09:53:48;52.67;;;21.92;;
32613;SDS011;19031;51.400;6.770;2023-11-21T09:56:17;58.63;;;23.42;;
32613;SDS011;19031;51.400;6.770;2023-11-21T09:58:49;57.78;;;23.92;;
32613;SDS011;19031;51.400;6.770;2023-11-21T10:01:16;58.22;;;26.25;;
32613;SDS011;19031;51.400;6.770;2023-11-21T10:03:43;59.25;;;24.73;;
32613;SDS011;19031;51.400;6.770;2023-11-21T10:06:09;64.85;;;29.70;;
32613;SDS011;19031;51.400;6.770;2023-11-21T10:08:37;67.40;;;27.23;;
32613;SDS011;19031;51.400;6.770;2023-11-21T10:11:03;67.57;;;27.42;;
32613;SDS011;19031;51.400;6.770;2023-11-21T10:13:32;73.05;;;30.58;;
32613;SDS011;19031;51.400;6.770;2023-11-21T10:15:58;71.63;;;27.15;;
32613;SDS011;19031;51.400;6.770;2023-11-21T10:18:24;77.57;;;27.70;;
32613;SDS011;19031;51.400;6.770;2023-11-21T10:20:52;74.97;;;30.40;;
32613;SDS011;19031;51.400;6.770;2023-11-21T10:23:19;66.80;;;29.63;;
32613;SDS011;19031;51.400;6.770;2023-11-21T10:25:47;63.60;;;25.80;;
32613;SDS011;19031;51.400;6.770;2023-11-21T10:28:14;65.88;;;26.38;;
32613;SDS011;19031;51.400;6.770;2023-11-21T10:30:40;75.65;;;31.20;;
32613;SDS011;19031;51.400;6.770;2023-11-21T10:33:06;92.63;;;37.00;;
32613;SDS011;19031;51.400;6.770;2023-11-21T10:35:48;87.63;;;32.53;;
32613;SDS011;19031;51.400;6.770;2023-11-21T10:38:20;95.80;;;34.90;;
32613;SDS011;19031;51.400;6.770;2023-11-21T10:40:48;83.10;;;31.90;;
32613;SDS011;19031;51.400;6.770;2023-11-21T10:43:14;104.78;;;37.85;;
32613;SDS011;19031;51.400;6.770;2023-11-21T10:45:40;92.55;;;35.47;;
32613;SDS011;19031;51.400;6.770;2023-11-21T10:48:12;90.72;;;31.77;;
32613;SDS011;19031;51.400;6.770;2023-11-21T10:50:41;84.78;;;30.73;;
32613;SDS011;19031;51.400;6.770;2023-11-21T10:53:10;82.35;;;34.15;;
32613;SDS011;19031;51.400;6.770;2023-11-21T10:55:38;110.30;;;38.78;;
32613;SDS011;19031;51.400;6.770;2023-11-21T10:58:04;90.20;;;35.50;;
32613;SDS011;19031;51.400;6.770;2023-11-21T11:00:31;88.30;;;35.38;;
32613;SDS011;19031;51.400;6.770;2023-11-21T11:02:57;84.10;;;33.30;;
32613;SDS011;19031;51.400;6.770;2023-11-21T11:05:24;69.78;;;31.17;;
32613;SDS011;19031;51.400;6.770;2023-11-21T11:08:00;77.85;;;32.58;;
32613;SDS011;19031;51.400;6.770;2023-11-21T11:10:29;72.30;;;32.03;;
32613;SDS011;19031;51.400;6.770;2023-11-21T11:12:56;84.72;;;34.38;;
32613;SDS011;19031;51.400;6.770;2023-11-21T11:15:23;84.18;;;35.00;;
32613;SDS011;19031;51.400;6.770;2023-11-21T11:17:49;84.70;;;34.42;;
32613;SDS011;19031;51.400;6.770;2023-11-21T11:20:16;87.55;;;32.28;;
32613;SDS011;19031;51.400;6.770;2023-11-21T11:34:51;70.65;;;29.25;;
32613;SDS011;19031;51.400;6.770;2023-11-21T11:37:25;60.83;;;28.73;;
32613;SDS011;19031;51.400;6.770;2023-11-21T11:39:52;65.97;;;30.02;;
32613;SDS011;19031;51.400;6.770;2023-11-21T11:42:19;64.85;;;32.13;;
32613;SDS011;19031;51.400;6.770;2023-11-21T11:44:47;73.20;;;33.03;;
32613;SDS011;19031;51.400;6.770;2023-11-21T11:49:57;68.32;;;32.03;;
32613;SDS011;19031;51.400;6.770;2023-11-21T11:52:41;75.05;;;33.85;;
32613;SDS011;19031;51.400;6.770;2023-11-21T11:55:09;71.72;;;33.08;;
32613;SDS011;19031;51.400;6.770;2023-11-21T11:57:36;63.13;;;30.77;;
32613;SDS011;19031;51.400;6.770;2023-11-21T12:02:40;80.13;;;35.90;;
32613;SDS011;19031;51.400;6.770;2023-11-21T12:05:09;89.95;;;37.70;;
32613;SDS011;19031;51.400;6.770;2023-11-21T12:10:17;95.93;;;40.00;;
32613;SDS011;19031;51.400;6.770;2023-11-21T12:12:51;107.95;;;44.88;;
32613;SDS011;19031;51.400;6.770;2023-11-21T12:15:18;108.47;;;46.60;;
32613;SDS011;19031;51.400;6.770;2023-11-21T12:17:44;100.88;;;42.33;;
32613;SDS011;19031;51.400;6.770;2023-11-21T12:20:14;102.40;;;44.67;;
32613;SDS011;19031;51.400;6.770;2023-11-21T12:22:46;114.00;;;45.22;;
32613;SDS011;19031;51.400;6.770;2023-11-21T12:25:13;87.45;;;41.13;;
32613;SDS011;19031;51.400;6.770;2023-11-21T12:27:43;81.10;;;36.30;;
32613;SDS011;19031;51.400;6.770;2023-11-21T12:30:11;72.47;;;37.85;;
32613;SDS011;19031;51.400;6.770;2023-11-21T12:32:41;79.82;;;37.53;;
32613;SDS011;19031;51.400;6.770;2023-11-21T12:35:13;86.10;;;39.95;;
32613;SDS011;19031;51.400;6.770;2023-11-21T12:37:40;74.43;;;37.10;;
32613;SDS011;19031;51.400;6.770;2023-11-21T12:40:08;77.57;;;40.20;;
32613;SDS011;19031;51.400;6.770;2023-11-21T12:42:40;79.65;;;35.60;;
32613;SDS011;19031;51.400;6.770;2023-11-21T12:45:18;72.75;;;37.00;;
32613;SDS011;19031;51.400;6.770;2023-11-21T12:47:45;96.63;;;40.83;;
32613;SDS011;19031;51.400;6.770;2023-11-21T12:50:22;85.90;;;41.08;;
32613;SDS011;19031;51.400;6.770;2023-11-21T12:52:49;92.05;;;42.20;;
32613;SDS011;19031;51.400;6.770;2023-11-21T12:55:21;75.85;;;38.38;;
32613;SDS011;19031;51.400;6.770;2023-11-21T12:57:48;93.18;;;39.08;;
32613;SDS011;19031;51.400;6.770;2023-11-21T13:00:19;93.97;;;41.28;;
32613;SDS011;19031;51.400;6.770;2023-11-21T13:02:53;88.80;;;40.33;;
32613;SDS011;19031;51.400;6.770;2023-11-21T13:07:50;78.65;;;35.85;;
32613;SDS011;19031;51.400;6.770;2023-11-21T13:10:19;91.13;;;42.05;;
32613;SDS011;19031;51.400;6.770;2023-11-21T13:12:51;95.53;;;40.50;;
32613;SDS011;19031;51.400;6.770;2023-11-21T13:15:23;85.88;;;37.30;;
32613;SDS011;19031;51.400;6.770;2023-11-21T13:17:50;48.35;;;21.48;;
32613;SDS011;19031;51.400;6.770;2023-11-21T13:20:16;39.65;;;17.50;;
32613;SDS011;19031;51.400;6.770;2023-11-21T13:22:55;37.95;;;18.17;;
32613;SDS011;19031;51.400;6.770;2023-11-21T13:25:29;44.03;;;20.67;;
32613;SDS011;19031;51.400;6.770;2023-11-21T13:27:56;34.42;;;16.73;;
32613;SDS011;19031;51.400;6.770;2023-11-21T13:30:27;34.83;;;16.45;;
32613;SDS011;19031;51.400;6.770;2023-11-21T13:32:58;32.60;;;15.68;;
32613;SDS011;19031;51.400;6.770;2023-11-21T13:35:31;27.52;;;13.63;;
32613;SDS011;19031;51.400;6.770;2023-11-21T13:38:12;28.45;;;14.02;;
32613;SDS011;19031;51.400;6.770;2023-11-21T13:40:57;30.13;;;14.88;;
32613;SDS011;19031;51.400;6.770;2023-11-21T13:43:24;24.05;;;12.95;;
32613;SDS011;19031;51.400;6.770;2023-11-21T13:45:51;20.20;;;11.30;;
32613;SDS011;19031;51.400;6.770;2023-11-21T13:48:41;19.45;;;9.80;;
32613;SDS011;19031;51.400;6.770;2023-11-21T13:51:15;25.77;;;12.68;;
32613;SDS011;19031;51.400;6.770;2023-11-21T13:53:45;23.90;;;13.05;;
32613;SDS011;19031;51.400;6.770;2023-11-21T13:56:14;28.48;;;14.13;;
32613;SDS011;19031;51.400;6.770;2023-11-21T13:58:44;30.70;;;14.30;;
32613;SDS011;19031;51.400;6.770;2023-11-21T14:01:15;25.48;;;13.85;;
32613;SDS011;19031;51.400;6.770;2023-11-21T14:06:26;24.25;;;11.43;;
32613;SDS011;19031;51.400;6.770;2023-11-21T14:08:59;22.38;;;11.88;;
32613;SDS011;19031;51.400;6.770;2023-11-21T14:11:30;22.35;;;12.50;;
32613;SDS011;19031;51.400;6.770;2023-11-21T14:13:56;21.52;;;12.38;;
32613;SDS011;19031;51.400;6.770;2023-11-21T14:16:24;21.48;;;11.20;;
32613;SDS011;19031;51.400;6.770;2023-11-21T14:18:49;21.00;;;12.13;;
32613;SDS011;19031;51.400;6.770;2023-11-21T14:21:22;25.23;;;12.65;;
32613;SDS011;19031;51.400;6.770;2023-11-21T14:23:48;24.98;;;12.10;;
32613;SDS011;19031;51.400;6.770;2023-11-21T14:26:14;26.23;;;12.35;;
32613;SDS011;19031;51.400;6.770;2023-11-21T14:28:41;22.42;;;12.35;;
32613;SDS011;19031;51.400;6.770;2023-11-21T14:31:07;24.30;;;12.85;;
32613;SDS011;19031;51.400;6.770;2023-11-21T14:33:39;26.08;;;12.75;;
32613;SDS011;19031;51.400;6.770;2023-11-21T14:36:05;26.77;;;13.10;;
32613;SDS011;19031;51.400;6.770;2023-11-21T14:38:33;24.15;;;13.73;;
32613;SDS011;19031;51.400;6.770;2023-11-21T14:40:59;24.27;;;13.82;;
32613;SDS011;19031;51.400;6.770;2023-11-21T14:43:24;27.20;;;14.50;;
32613;SDS011;19031;51.400;6.770;2023-11-21T14:45:52;25.58;;;12.60;;
32613;SDS011;19031;51.400;6.770;2023-11-21T14:48:21;25.65;;;14.07;;
32613;SDS011;19031;51.400;6.770;2023-11-21T14:51:05;25.38;;;12.98;;
32613;SDS011;19031;51.400;6.770;2023-11-21T14:53:31;25.48;;;13.00;;